sensor_id;sensor_type;location;lat;lon;timestamp;P1;durP1;ratioP1;P2;durP2;ratioP2
15958;SDS011;8078;47.822;9.402;2022-07-21T00:02:01;35.80;;;24.83;;
15958;SDS011;8078;47.822;9.402;2022-07-21T00:04:27;33.65;;;25.30;;
15958;SDS011;8078;47.822;9.402;2022-07-21T00:06:53;34.30;;;24.35;;
15958;SDS011;8078;47.822;9.402;2022-07-21T00:09:18;32.83;;;25.20;;
15958;SDS011;8078;47.822;9.402;2022-07-21T00:11:44;34.10;;;25.45;;
15958;SDS011;8078;47.822;9.402;2022-07-21T00:14:10;37.95;;;26.63;;
15958;SDS011;8078;47.822;9.402;2022-07-21T00:16:37;34.75;;;25.85;;
15958;SDS011;8078;47.822;9.402;2022-07-21T00:19:04;34.40;;;24.92;;
15958;SDS011;8078;47.822;9.402;2022-07-21T00:21:29;36.78;;;27.75;;
15958;SDS011;8078;47.822;9.402;2022-07-21T00:23:55;41.20;;;28.25;;
15958;SDS011;8078;47.822;9.402;2022-07-21T00:26:21;39.30;;;27.77;;
15958;SDS011;8078;47.822;9.402;2022-07-21T00:28:47;42.20;;;27.65;;
15958;SDS011;8078;47.822;9.402;2022-07-21T00:31:13;44.35;;;29.52;;
15958;SDS011;8078;47.822;9.402;2022-07-21T00:33:38;36.83;;;28.60;;
15958;SDS011;8078;47.822;9.402;2022-07-21T00:36:04;41.03;;;29.13;;
15958;SDS011;8078;47.822;9.402;2022-07-21T00:38:30;40.13;;;28.75;;
15958;SDS011;8078;47.822;9.402;2022-07-21T00:40:56;39.17;;;29.17;;
15958;SDS011;8078;47.822;9.402;2022-07-21T00:43:21;43.40;;;29.55;;
15958;SDS011;8078;47.822;9.402;2022-07-21T00:45:47;47.05;;;32.05;;
15958;SDS011;8078;47.822;9.402;2022-07-21T00:48:13;45.45;;;33.20;;
15958;SDS011;8078;47.822;9.402;2022-07-21T00:50:38;48.97;;;32.72;;
15958;SDS011;8078;47.822;9.402;2022-07-21T00:53:04;49.60;;;34.25;;
15958;SDS011;8078;47.822;9.402;2022-07-21T00:55:30;48.72;;;34.28;;
15958;SDS011;8078;47.822;9.402;2022-07-21T00:57:56;61.88;;;35.45;;
15958;SDS011;8078;47.822;9.402;2022-07-21T01:00:24;52.33;;;35.90;;
15958;SDS011;8078;47.822;9.402;2022-07-21T01:02:52;49.53;;;35.08;;
15958;SDS011;8078;47.822;9.402;2022-07-21T01:05:18;51.05;;;33.70;;
15958;SDS011;8078;47.822;9.402;2022-07-21T01:07:47;49.40;;;33.80;;
15958;SDS011;8078;47.822;9.402;2022-07-21T01:10:15;52.45;;;33.65;;
15958;SDS011;8078;47.822;9.402;2022-07-21T01:12:43;58.97;;;34.78;;
15958;SDS011;8078;47.822;9.402;2022-07-21T01:15:09;64.25;;;35.10;;
15958;SDS011;8078;47.822;9.402;2022-07-21T01:17:36;604.95;;;54.97;;
15958;SDS011;8078;47.822;9.402;2022-07-21T01:20:06;808.78;;;66.10;;
15958;SDS011;8078;47.822;9.402;2022-07-21T01:22:34;1254.18;;;80.90;;
15958;SDS011;8078;47.822;9.402;2022-07-21T01:25:01;1106.63;;;71.43;;
15958;SDS011;8078;47.822;9.402;2022-07-21T01:27:27;1098.15;;;72.75;;
15958;SDS011;8078;47.822;9.402;2022-07-21T01:29:53;1644.10;;;101.32;;
15958;SDS011;8078;47.822;9.402;2022-07-21T01:32:20;1462.22;;;94.25;;
15958;SDS011;8078;47.822;9.402;2022-07-21T01:34:46;1095.35;;;79.88;;
15958;SDS011;8078;47.822;9.402;2022-07-21T01:37:12;615.45;;;54.85;;
15958;SDS011;8078;47.822;9.402;2022-07-21T01:39:38;1424.90;;;98.13;;
15958;SDS011;8078;47.822;9.402;2022-07-21T01:42:22;1017.15;;;68.70;;
15958;SDS011;8078;47.822;9.402;2022-07-21T01:44:48;1578.93;;;98.70;;
15958;SDS011;8078;47.822;9.402;2022-07-21T01:47:14;1525.70;;;96.28;;
15958;SDS011;8078;47.822;9.402;2022-07-21T01:49:42;1563.68;;;97.32;;
15958;SDS011;8078;47.822;9.402;2022-07-21T01:52:08;1577.57;;;94.85;;
15958;SDS011;8078;47.822;9.402;2022-07-21T01:54:34;1414.18;;;96.80;;
15958;SDS011;8078;47.822;9.402;2022-07-21T01:56:59;1720.70;;;110.72;;
15958;SDS011;8078;47.822;9.402;2022-07-21T01:59:25;1600.70;;;96.30;;
15958;SDS011;8078;47.822;9.402;2022-07-21T02:01:50;1999.90;;;125.68;;
15958;SDS011;8078;47.822;9.402;2022-07-21T02:04:16;1722.22;;;105.93;;
15958;SDS011;8078;47.822;9.402;2022-07-21T02:06:41;1582.97;;;100.18;;
15958;SDS011;8078;47.822;9.402;2022-07-21T02:09:07;1585.10;;;99.30;;
15958;SDS011;8078;47.822;9.402;2022-07-21T02:11:33;1436.43;;;94.25;;
15958;SDS011;8078;47.822;9.402;2022-07-21T02:13:59;1857.75;;;121.72;;
15958;SDS011;8078;47.822;9.402;2022-07-21T02:16:26;1628.57;;;116.30;;
15958;SDS011;8078;47.822;9.402;2022-07-21T02:18:52;1747.50;;;120.45;;
15958;SDS011;8078;47.822;9.402;2022-07-21T02:21:17;1466.28;;;109.55;;
15958;SDS011;8078;47.822;9.402;2022-07-21T02:23:43;791.72;;;74.72;;
15958;SDS011;8078;47.822;9.402;2022-07-21T02:26:09;604.75;;;62.65;;
15958;SDS011;8078;47.822;9.402;2022-07-21T02:28:34;570.28;;;67.03;;
15958;SDS011;8078;47.822;9.402;2022-07-21T02:31:00;869.70;;;80.72;;
15958;SDS011;8078;47.822;9.402;2022-07-21T02:33:26;1351.15;;;102.25;;
15958;SDS011;8078;47.822;9.402;2022-07-21T02:35:51;1035.88;;;90.07;;
15958;SDS011;8078;47.822;9.402;2022-07-21T02:38:17;1092.07;;;90.80;;
15958;SDS011;8078;47.822;9.402;2022-07-21T02:40:43;1380.53;;;106.60;;
15958;SDS011;8078;47.822;9.402;2022-07-21T02:43:08;1634.18;;;114.60;;
15958;SDS011;8078;47.822;9.402;2022-07-21T02:45:34;1516.55;;;103.53;;
15958;SDS011;8078;47.822;9.402;2022-07-21T02:50:28;1184.03;;;88.07;;
15958;SDS011;8078;47.822;9.402;2022-07-21T02:52:59;1068.25;;;80.50;;
15958;SDS011;8078;47.822;9.402;2022-07-21T02:55:28;520.88;;;56.63;;
15958;SDS011;8078;47.822;9.402;2022-07-21T03:00:38;50.45;;;34.33;;
15958;SDS011;8078;47.822;9.402;2022-07-21T03:03:05;233.23;;;43.35;;
15958;SDS011;8078;47.822;9.402;2022-07-21T03:05:32;59.60;;;36.03;;
15958;SDS011;8078;47.822;9.402;2022-07-21T03:07:58;93.03;;;40.25;;
15958;SDS011;8078;47.822;9.402;2022-07-21T03:10:24;464.50;;;52.60;;
15958;SDS011;8078;47.822;9.402;2022-07-21T03:12:49;941.92;;;80.75;;
15958;SDS011;8078;47.822;9.402;2022-07-21T03:15:15;684.03;;;63.90;;
15958;SDS011;8078;47.822;9.402;2022-07-21T03:17:40;1000.90;;;78.57;;
15958;SDS011;8078;47.822;9.402;2022-07-21T03:20:06;1374.97;;;104.78;;
15958;SDS011;8078;47.822;9.402;2022-07-21T03:22:32;278.08;;;42.30;;
15958;SDS011;8078;47.822;9.402;2022-07-21T03:24:58;845.30;;;71.13;;
15958;SDS011;8078;47.822;9.402;2022-07-21T03:27:24;425.40;;;52.40;;
15958;SDS011;8078;47.822;9.402;2022-07-21T03:29:50;1145.20;;;92.05;;
15958;SDS011;8078;47.822;9.402;2022-07-21T03:32:16;849.45;;;68.28;;
15958;SDS011;8078;47.822;9.402;2022-07-21T03:34:41;539.40;;;55.30;;
15958;SDS011;8078;47.822;9.402;2022-07-21T03:37:07;974.95;;;82.60;;
15958;SDS011;8078;47.822;9.402;2022-07-21T03:39:33;533.25;;;55.40;;
15958;SDS011;8078;47.822;9.402;2022-07-21T03:41:59;67.78;;;36.67;;
15958;SDS011;8078;47.822;9.402;2022-07-21T03:44:25;155.60;;;41.90;;
15958;SDS011;8078;47.822;9.402;2022-07-21T03:46:50;951.47;;;79.65;;
15958;SDS011;8078;47.822;9.402;2022-07-21T03:49:16;1004.70;;;77.63;;
15958;SDS011;8078;47.822;9.402;2022-07-21T03:51:41;603.65;;;58.63;;
15958;SDS011;8078;47.822;9.402;2022-07-21T03:54:07;109.25;;;39.15;;
15958;SDS011;8078;47.822;9.402;2022-07-21T03:56:32;92.68;;;38.25;;
15958;SDS011;8078;47.822;9.402;2022-07-21T03:58:58;297.33;;;45.63;;
15958;SDS011;8078;47.822;9.402;2022-07-21T04:01:23;107.63;;;40.88;;
15958;SDS011;8078;47.822;9.402;2022-07-21T04:03:49;151.75;;;39.13;;
15958;SDS011;8078;47.822;9.402;2022-07-21T04:06:14;158.13;;;39.58;;
15958;SDS011;8078;47.822;9.402;2022-07-21T04:08:40;174.57;;;41.03;;
15958;SDS011;8078;47.822;9.402;2022-07-21T04:11:06;59.08;;;36.88;;
15958;SDS011;8078;47.822;9.402;2022-07-21T04:13:31;58.25;;;35.10;;
15958;SDS011;8078;47.822;9.402;2022-07-21T04:15:57;53.60;;;37.33;;
15958;SDS011;8078;47.822;9.402;2022-07-21T04:18:22;109.22;;;39.92;;
15958;SDS011;8078;47.822;9.402;2022-07-21T04:20:48;85.50;;;38.50;;
15958;SDS011;8078;47.822;9.402;2022-07-21T04:23:13;266.38;;;47.50;;
15958;SDS011;8078;47.822;9.402;2022-07-21T04:25:39;914.92;;;74.50;;
15958;SDS011;8078;47.822;9.402;2022-07-21T04:28:05;195.70;;;44.60;;
15958;SDS011;8078;47.822;9.402;2022-07-21T04:30:31;62.83;;;38.85;;
15958;SDS011;8078;47.822;9.402;2022-07-21T04:32:57;155.65;;;44.00;;
15958;SDS011;8078;47.822;9.402;2022-07-21T04:35:23;87.75;;;42.20;;
15958;SDS011;8078;47.822;9.402;2022-07-21T04:37:49;196.90;;;47.08;;
15958;SDS011;8078;47.822;9.402;2022-07-21T04:40:15;59.58;;;39.78;;
15958;SDS011;8078;47.822;9.402;2022-07-21T04:42:41;66.15;;;40.05;;
15958;SDS011;8078;47.822;9.402;2022-07-21T04:45:08;131.30;;;42.08;;
15958;SDS011;8078;47.822;9.402;2022-07-21T04:47:46;574.60;;;60.15;;
15958;SDS011;8078;47.822;9.402;2022-07-21T04:50:11;446.85;;;53.63;;
15958;SDS011;8078;47.822;9.402;2022-07-21T04:52:37;603.67;;;60.13;;
15958;SDS011;8078;47.822;9.402;2022-07-21T04:55:03;63.55;;;39.15;;
15958;SDS011;8078;47.822;9.402;2022-07-21T04:57:29;207.02;;;46.80;;
15958;SDS011;8078;47.822;9.402;2022-07-21T04:59:54;674.60;;;69.25;;
15958;SDS011;8078;47.822;9.402;2022-07-21T05:02:20;536.47;;;58.80;;
15958;SDS011;8078;47.822;9.402;2022-07-21T05:04:46;180.98;;;45.13;;
15958;SDS011;8078;47.822;9.402;2022-07-21T05:07:11;83.85;;;43.08;;
15958;SDS011;8078;47.822;9.402;2022-07-21T05:09:37;65.90;;;39.45;;
15958;SDS011;8078;47.822;9.402;2022-07-21T05:12:02;67.15;;;40.47;;
15958;SDS011;8078;47.822;9.402;2022-07-21T05:14:28;147.77;;;45.10;;
15958;SDS011;8078;47.822;9.402;2022-07-21T05:16:54;65.40;;;40.20;;
15958;SDS011;8078;47.822;9.402;2022-07-21T05:19:19;55.00;;;37.90;;
15958;SDS011;8078;47.822;9.402;2022-07-21T05:21:45;60.50;;;37.65;;
15958;SDS011;8078;47.822;9.402;2022-07-21T05:24:12;71.80;;;36.28;;
15958;SDS011;8078;47.822;9.402;2022-07-21T05:26:37;52.53;;;35.58;;
15958;SDS011;8078;47.822;9.402;2022-07-21T05:29:03;45.97;;;32.70;;
15958;SDS011;8078;47.822;9.402;2022-07-21T05:31:29;44.65;;;33.38;;
15958;SDS011;8078;47.822;9.402;2022-07-21T05:33:54;49.95;;;34.40;;
15958;SDS011;8078;47.822;9.402;2022-07-21T05:36:20;46.92;;;31.55;;
15958;SDS011;8078;47.822;9.402;2022-07-21T05:38:46;42.80;;;31.65;;
15958;SDS011;8078;47.822;9.402;2022-07-21T05:41:12;39.83;;;29.50;;
15958;SDS011;8078;47.822;9.402;2022-07-21T05:43:37;40.33;;;29.23;;
15958;SDS011;8078;47.822;9.402;2022-07-21T05:46:03;37.13;;;28.70;;
15958;SDS011;8078;47.822;9.402;2022-07-21T05:48:28;40.50;;;28.75;;
15958;SDS011;8078;47.822;9.402;2022-07-21T05:50:54;37.33;;;28.65;;
15958;SDS011;8078;47.822;9.402;2022-07-21T05:53:19;39.22;;;29.83;;
15958;SDS011;8078;47.822;9.402;2022-07-21T05:55:45;37.33;;;27.55;;
15958;SDS011;8078;47.822;9.402;2022-07-21T05:58:11;36.20;;;27.50;;
15958;SDS011;8078;47.822;9.402;2022-07-21T06:00:37;33.55;;;26.25;;
15958;SDS011;8078;47.822;9.402;2022-07-21T06:03:02;36.70;;;27.58;;
15958;SDS011;8078;47.822;9.402;2022-07-21T06:05:28;34.13;;;26.77;;
15958;SDS011;8078;47.822;9.402;2022-07-21T06:07:54;38.42;;;27.73;;
15958;SDS011;8078;47.822;9.402;2022-07-21T06:10:32;36.30;;;26.58;;
15958;SDS011;8078;47.822;9.402;2022-07-21T06:12:57;38.67;;;28.17;;
15958;SDS011;8078;47.822;9.402;2022-07-21T06:15:23;37.40;;;27.85;;
15958;SDS011;8078;47.822;9.402;2022-07-21T06:17:49;39.25;;;28.67;;
15958;SDS011;8078;47.822;9.402;2022-07-21T06:20:14;34.50;;;28.23;;
15958;SDS011;8078;47.822;9.402;2022-07-21T06:22:40;40.03;;;28.27;;
15958;SDS011;8078;47.822;9.402;2022-07-21T06:25:05;35.70;;;28.40;;
15958;SDS011;8078;47.822;9.402;2022-07-21T06:27:31;38.05;;;27.75;;
15958;SDS011;8078;47.822;9.402;2022-07-21T06:29:57;34.60;;;26.45;;
15958;SDS011;8078;47.822;9.402;2022-07-21T06:32:24;35.67;;;27.70;;
15958;SDS011;8078;47.822;9.402;2022-07-21T06:34:50;34.13;;;26.27;;
15958;SDS011;8078;47.822;9.402;2022-07-21T06:37:16;31.17;;;25.50;;
15958;SDS011;8078;47.822;9.402;2022-07-21T06:39:42;36.13;;;24.67;;
15958;SDS011;8078;47.822;9.402;2022-07-21T06:42:08;30.48;;;24.27;;
15958;SDS011;8078;47.822;9.402;2022-07-21T06:44:34;30.02;;;23.63;;
15958;SDS011;8078;47.822;9.402;2022-07-21T06:46:59;28.10;;;22.15;;
15958;SDS011;8078;47.822;9.402;2022-07-21T06:49:30;27.85;;;22.83;;
15958;SDS011;8078;47.822;9.402;2022-07-21T06:51:56;27.63;;;23.20;;
15958;SDS011;8078;47.822;9.402;2022-07-21T06:54:22;29.85;;;22.90;;
15958;SDS011;8078;47.822;9.402;2022-07-21T06:56:48;27.60;;;23.42;;
15958;SDS011;8078;47.822;9.402;2022-07-21T06:59:13;32.25;;;24.48;;
15958;SDS011;8078;47.822;9.402;2022-07-21T07:01:39;29.77;;;25.17;;
15958;SDS011;8078;47.822;9.402;2022-07-21T07:04:05;34.03;;;23.40;;
15958;SDS011;8078;47.822;9.402;2022-07-21T07:06:30;26.13;;;23.33;;
15958;SDS011;8078;47.822;9.402;2022-07-21T07:08:56;30.67;;;23.40;;
15958;SDS011;8078;47.822;9.402;2022-07-21T07:11:21;26.20;;;20.90;;
15958;SDS011;8078;47.822;9.402;2022-07-21T07:13:47;29.58;;;22.25;;
15958;SDS011;8078;47.822;9.402;2022-07-21T07:16:12;27.92;;;21.83;;
15958;SDS011;8078;47.822;9.402;2022-07-21T07:18:38;22.23;;;18.83;;
15958;SDS011;8078;47.822;9.402;2022-07-21T07:21:04;27.65;;;20.90;;
15958;SDS011;8078;47.822;9.402;2022-07-21T07:23:30;29.27;;;21.55;;
15958;SDS011;8078;47.822;9.402;2022-07-21T07:25:55;23.58;;;20.10;;
15958;SDS011;8078;47.822;9.402;2022-07-21T07:28:21;29.33;;;20.95;;
15958;SDS011;8078;47.822;9.402;2022-07-21T07:30:47;23.67;;;19.58;;
15958;SDS011;8078;47.822;9.402;2022-07-21T07:33:13;21.95;;;18.90;;
15958;SDS011;8078;47.822;9.402;2022-07-21T07:35:39;19.80;;;17.60;;
15958;SDS011;8078;47.822;9.402;2022-07-21T07:38:04;29.70;;;20.23;;
15958;SDS011;8078;47.822;9.402;2022-07-21T07:40:30;24.35;;;19.02;;
15958;SDS011;8078;47.822;9.402;2022-07-21T07:42:56;21.40;;;18.08;;
15958;SDS011;8078;47.822;9.402;2022-07-21T07:45:21;19.92;;;15.77;;
15958;SDS011;8078;47.822;9.402;2022-07-21T07:47:47;24.40;;;17.05;;
15958;SDS011;8078;47.822;9.402;2022-07-21T07:50:13;21.98;;;17.13;;
15958;SDS011;8078;47.822;9.402;2022-07-21T07:52:40;20.83;;;16.20;;
15958;SDS011;8078;47.822;9.402;2022-07-21T07:55:08;16.77;;;14.70;;
15958;SDS011;8078;47.822;9.402;2022-07-21T07:57:35;15.80;;;13.38;;
15958;SDS011;8078;47.822;9.402;2022-07-21T08:00:03;18.80;;;14.18;;
15958;SDS011;8078;47.822;9.402;2022-07-21T08:02:35;18.83;;;14.02;;
15958;SDS011;8078;47.822;9.402;2022-07-21T08:05:00;16.95;;;13.35;;
15958;SDS011;8078;47.822;9.402;2022-07-21T08:07:26;19.85;;;15.77;;
15958;SDS011;8078;47.822;9.402;2022-07-21T08:09:52;18.48;;;14.70;;
15958;SDS011;8078;47.822;9.402;2022-07-21T08:12:17;17.13;;;14.85;;
15958;SDS011;8078;47.822;9.402;2022-07-21T08:14:43;18.48;;;14.13;;
15958;SDS011;8078;47.822;9.402;2022-07-21T08:17:09;20.42;;;16.35;;
15958;SDS011;8078;47.822;9.402;2022-07-21T08:19:35;20.15;;;14.85;;
15958;SDS011;8078;47.822;9.402;2022-07-21T08:22:00;20.38;;;17.08;;
15958;SDS011;8078;47.822;9.402;2022-07-21T08:24:26;16.27;;;13.50;;
15958;SDS011;8078;47.822;9.402;2022-07-21T08:26:52;17.27;;;14.70;;
15958;SDS011;8078;47.822;9.402;2022-07-21T08:29:18;17.48;;;14.18;;
15958;SDS011;8078;47.822;9.402;2022-07-21T08:31:43;17.20;;;14.40;;
15958;SDS011;8078;47.822;9.402;2022-07-21T08:34:09;18.20;;;15.23;;
15958;SDS011;8078;47.822;9.402;2022-07-21T08:36:34;16.52;;;13.50;;
15958;SDS011;8078;47.822;9.402;2022-07-21T08:39:00;15.95;;;12.48;;
15958;SDS011;8078;47.822;9.402;2022-07-21T08:41:26;17.45;;;14.55;;
15958;SDS011;8078;47.822;9.402;2022-07-21T08:43:52;19.75;;;17.05;;
15958;SDS011;8078;47.822;9.402;2022-07-21T08:46:18;18.65;;;15.55;;
15958;SDS011;8078;47.822;9.402;2022-07-21T08:48:47;14.68;;;13.25;;
15958;SDS011;8078;47.822;9.402;2022-07-21T08:51:13;15.45;;;10.73;;
15958;SDS011;8078;47.822;9.402;2022-07-21T08:53:43;15.10;;;13.55;;
15958;SDS011;8078;47.822;9.402;2022-07-21T08:56:09;17.20;;;13.70;;
15958;SDS011;8078;47.822;9.402;2022-07-21T08:58:35;19.23;;;15.70;;
15958;SDS011;8078;47.822;9.402;2022-07-21T09:01:02;18.13;;;14.75;;
15958;SDS011;8078;47.822;9.402;2022-07-21T09:03:28;16.88;;;13.65;;
15958;SDS011;8078;47.822;9.402;2022-07-21T09:08:35;17.77;;;15.13;;
15958;SDS011;8078;47.822;9.402;2022-07-21T09:11:19;17.02;;;15.05;;
15958;SDS011;8078;47.822;9.402;2022-07-21T09:14:06;15.95;;;13.77;;
15958;SDS011;8078;47.822;9.402;2022-07-21T09:19:00;18.70;;;12.60;;
15958;SDS011;8078;47.822;9.402;2022-07-21T09:21:26;15.18;;;13.55;;
15958;SDS011;8078;47.822;9.402;2022-07-21T09:23:58;11.75;;;10.55;;
15958;SDS011;8078;47.822;9.402;2022-07-21T09:26:55;14.05;;;10.82;;
15958;SDS011;8078;47.822;9.402;2022-07-21T09:29:21;15.35;;;10.88;;
15958;SDS011;8078;47.822;9.402;2022-07-21T09:31:46;12.60;;;10.05;;
15958;SDS011;8078;47.822;9.402;2022-07-21T09:34:12;15.27;;;10.20;;
15958;SDS011;8078;47.822;9.402;2022-07-21T09:36:39;13.90;;;9.73;;
15958;SDS011;8078;47.822;9.402;2022-07-21T09:39:39;11.70;;;8.68;;
15958;SDS011;8078;47.822;9.402;2022-07-21T09:42:16;12.35;;;9.98;;
15958;SDS011;8078;47.822;9.402;2022-07-21T09:47:25;15.02;;;10.65;;
15958;SDS011;8078;47.822;9.402;2022-07-21T09:49:54;12.10;;;10.18;;
15958;SDS011;8078;47.822;9.402;2022-07-21T09:52:31;12.15;;;10.07;;
15958;SDS011;8078;47.822;9.402;2022-07-21T09:55:05;13.45;;;9.43;;
15958;SDS011;8078;47.822;9.402;2022-07-21T09:57:32;10.38;;;7.97;;
15958;SDS011;8078;47.822;9.402;2022-07-21T09:59:58;9.18;;;7.93;;
15958;SDS011;8078;47.822;9.402;2022-07-21T10:02:26;7.90;;;7.10;;
15958;SDS011;8078;47.822;9.402;2022-07-21T10:07:31;11.30;;;7.22;;
15958;SDS011;8078;47.822;9.402;2022-07-21T10:09:58;11.10;;;7.80;;
15958;SDS011;8078;47.822;9.402;2022-07-21T10:12:25;8.77;;;7.97;;
15958;SDS011;8078;47.822;9.402;2022-07-21T10:14:52;10.90;;;6.63;;
15958;SDS011;8078;47.822;9.402;2022-07-21T10:17:19;9.55;;;7.35;;
15958;SDS011;8078;47.822;9.402;2022-07-21T10:19:51;8.85;;;7.32;;
15958;SDS011;8078;47.822;9.402;2022-07-21T10:24:55;9.27;;;8.02;;
15958;SDS011;8078;47.822;9.402;2022-07-21T10:27:21;13.27;;;8.05;;
15958;SDS011;8078;47.822;9.402;2022-07-21T10:32:14;10.85;;;8.20;;
15958;SDS011;8078;47.822;9.402;2022-07-21T10:34:41;8.70;;;7.07;;
15958;SDS011;8078;47.822;9.402;2022-07-21T10:37:08;9.27;;;8.07;;
15958;SDS011;8078;47.822;9.402;2022-07-21T10:39:34;9.27;;;7.75;;
15958;SDS011;8078;47.822;9.402;2022-07-21T10:42:00;9.15;;;7.38;;
15958;SDS011;8078;47.822;9.402;2022-07-21T10:44:42;10.90;;;8.02;;
15958;SDS011;8078;47.822;9.402;2022-07-21T10:49:52;7.70;;;6.97;;
15958;SDS011;8078;47.822;9.402;2022-07-21T10:52:52;11.23;;;7.15;;
15958;SDS011;8078;47.822;9.402;2022-07-21T10:55:22;8.55;;;6.80;;
15958;SDS011;8078;47.822;9.402;2022-07-21T11:00:47;8.65;;;6.30;;
15958;SDS011;8078;47.822;9.402;2022-07-21T11:03:22;8.20;;;6.60;;
15958;SDS011;8078;47.822;9.402;2022-07-21T11:08:53;5.90;;;5.30;;
15958;SDS011;8078;47.822;9.402;2022-07-21T11:14:10;9.38;;;6.22;;
15958;SDS011;8078;47.822;9.402;2022-07-21T11:21:53;7.25;;;5.78;;
15958;SDS011;8078;47.822;9.402;2022-07-21T11:24:20;7.90;;;5.88;;
15958;SDS011;8078;47.822;9.402;2022-07-21T11:26:57;7.32;;;5.90;;
15958;SDS011;8078;47.822;9.402;2022-07-21T11:29:29;7.70;;;6.22;;
15958;SDS011;8078;47.822;9.402;2022-07-21T11:31:55;6.95;;;6.10;;
15958;SDS011;8078;47.822;9.402;2022-07-21T11:34:36;6.95;;;5.88;;
15958;SDS011;8078;47.822;9.402;2022-07-21T11:37:04;6.18;;;5.60;;
15958;SDS011;8078;47.822;9.402;2022-07-21T11:39:30;7.22;;;6.10;;
15958;SDS011;8078;47.822;9.402;2022-07-21T11:42:00;8.73;;;6.72;;
15958;SDS011;8078;47.822;9.402;2022-07-21T11:44:31;7.82;;;6.10;;
15958;SDS011;8078;47.822;9.402;2022-07-21T11:46:58;11.80;;;6.97;;
15958;SDS011;8078;47.822;9.402;2022-07-21T11:49:25;8.73;;;5.93;;
15958;SDS011;8078;47.822;9.402;2022-07-21T11:51:52;8.93;;;6.40;;
15958;SDS011;8078;47.822;9.402;2022-07-21T11:54:28;7.30;;;6.43;;
15958;SDS011;8078;47.822;9.402;2022-07-21T11:56:56;8.63;;;6.55;;
15958;SDS011;8078;47.822;9.402;2022-07-21T11:59:23;7.15;;;5.97;;
15958;SDS011;8078;47.822;9.402;2022-07-21T12:04:59;9.82;;;6.47;;
15958;SDS011;8078;47.822;9.402;2022-07-21T12:09:50;7.68;;;6.32;;
15958;SDS011;8078;47.822;9.402;2022-07-21T12:12:28;6.97;;;5.75;;
15958;SDS011;8078;47.822;9.402;2022-07-21T12:14:55;6.65;;;5.95;;
15958;SDS011;8078;47.822;9.402;2022-07-21T12:17:32;8.90;;;6.10;;
15958;SDS011;8078;47.822;9.402;2022-07-21T12:20:00;6.43;;;5.25;;
15958;SDS011;8078;47.822;9.402;2022-07-21T12:22:36;8.10;;;6.38;;
15958;SDS011;8078;47.822;9.402;2022-07-21T12:25:12;9.90;;;5.80;;
15958;SDS011;8078;47.822;9.402;2022-07-21T12:27:39;6.15;;;5.00;;
15958;SDS011;8078;47.822;9.402;2022-07-21T12:30:07;8.38;;;5.07;;
15958;SDS011;8078;47.822;9.402;2022-07-21T12:32:43;6.72;;;5.57;;
15958;SDS011;8078;47.822;9.402;2022-07-21T12:35:21;6.97;;;5.03;;
15958;SDS011;8078;47.822;9.402;2022-07-21T12:37:59;5.85;;;5.18;;
15958;SDS011;8078;47.822;9.402;2022-07-21T12:40:27;8.18;;;5.68;;
15958;SDS011;8078;47.822;9.402;2022-07-21T12:43:05;6.78;;;5.80;;
15958;SDS011;8078;47.822;9.402;2022-07-21T12:45:43;5.90;;;5.18;;
15958;SDS011;8078;47.822;9.402;2022-07-21T12:48:10;6.55;;;5.20;;
15958;SDS011;8078;47.822;9.402;2022-07-21T12:50:39;7.13;;;5.13;;
15958;SDS011;8078;47.822;9.402;2022-07-21T12:53:05;8.13;;;5.55;;
15958;SDS011;8078;47.822;9.402;2022-07-21T12:55:35;6.20;;;5.53;;
15958;SDS011;8078;47.822;9.402;2022-07-21T12:58:01;8.13;;;5.10;;
15958;SDS011;8078;47.822;9.402;2022-07-21T13:00:27;8.23;;;5.45;;
15958;SDS011;8078;47.822;9.402;2022-07-21T13:02:53;6.80;;;5.10;;
15958;SDS011;8078;47.822;9.402;2022-07-21T13:05:20;5.60;;;5.05;;
15958;SDS011;8078;47.822;9.402;2022-07-21T13:07:47;7.22;;;5.10;;
15958;SDS011;8078;47.822;9.402;2022-07-21T13:10:13;5.63;;;4.75;;
15958;SDS011;8078;47.822;9.402;2022-07-21T13:12:38;7.13;;;5.30;;
15958;SDS011;8078;47.822;9.402;2022-07-21T13:15:04;6.22;;;4.97;;
15958;SDS011;8078;47.822;9.402;2022-07-21T13:17:30;5.78;;;5.22;;
15958;SDS011;8078;47.822;9.402;2022-07-21T13:19:56;5.18;;;4.68;;
15958;SDS011;8078;47.822;9.402;2022-07-21T13:22:22;6.07;;;5.47;;
15958;SDS011;8078;47.822;9.402;2022-07-21T13:24:47;5.53;;;5.00;;
15958;SDS011;8078;47.822;9.402;2022-07-21T13:27:13;7.50;;;5.30;;
15958;SDS011;8078;47.822;9.402;2022-07-21T13:29:39;7.13;;;5.15;;
15958;SDS011;8078;47.822;9.402;2022-07-21T13:32:05;6.80;;;5.32;;
15958;SDS011;8078;47.822;9.402;2022-07-21T13:34:32;7.40;;;5.13;;
15958;SDS011;8078;47.822;9.402;2022-07-21T13:36:58;6.30;;;5.60;;
15958;SDS011;8078;47.822;9.402;2022-07-21T13:39:23;6.88;;;5.03;;
15958;SDS011;8078;47.822;9.402;2022-07-21T13:41:51;8.60;;;4.97;;
15958;SDS011;8078;47.822;9.402;2022-07-21T13:44:18;5.78;;;5.03;;
15958;SDS011;8078;47.822;9.402;2022-07-21T13:46:43;6.28;;;5.38;;
15958;SDS011;8078;47.822;9.402;2022-07-21T13:49:09;7.97;;;5.38;;
15958;SDS011;8078;47.822;9.402;2022-07-21T13:51:35;8.32;;;5.50;;
15958;SDS011;8078;47.822;9.402;2022-07-21T13:54:00;8.63;;;4.90;;
15958;SDS011;8078;47.822;9.402;2022-07-21T13:56:26;5.43;;;4.93;;
15958;SDS011;8078;47.822;9.402;2022-07-21T13:58:52;10.52;;;5.25;;
15958;SDS011;8078;47.822;9.402;2022-07-21T14:01:18;6.88;;;5.32;;
15958;SDS011;8078;47.822;9.402;2022-07-21T14:03:44;7.90;;;5.35;;
15958;SDS011;8078;47.822;9.402;2022-07-21T14:06:10;6.28;;;4.82;;
15958;SDS011;8078;47.822;9.402;2022-07-21T14:08:37;5.47;;;4.50;;
15958;SDS011;8078;47.822;9.402;2022-07-21T14:11:03;6.03;;;4.68;;
15958;SDS011;8078;47.822;9.402;2022-07-21T14:13:30;5.50;;;4.90;;
15958;SDS011;8078;47.822;9.402;2022-07-21T14:15:56;6.60;;;4.80;;
15958;SDS011;8078;47.822;9.402;2022-07-21T14:18:21;5.43;;;4.90;;
15958;SDS011;8078;47.822;9.402;2022-07-21T14:20:47;6.47;;;5.00;;
15958;SDS011;8078;47.822;9.402;2022-07-21T14:23:16;7.32;;;5.20;;
15958;SDS011;8078;47.822;9.402;2022-07-21T14:25:43;5.88;;;5.03;;
15958;SDS011;8078;47.822;9.402;2022-07-21T14:28:09;5.95;;;4.80;;
15958;SDS011;8078;47.822;9.402;2022-07-21T14:30:34;7.15;;;5.32;;
15958;SDS011;8078;47.822;9.402;2022-07-21T14:33:00;8.15;;;5.07;;
15958;SDS011;8078;47.822;9.402;2022-07-21T14:35:26;7.80;;;5.47;;
15958;SDS011;8078;47.822;9.402;2022-07-21T14:37:52;8.93;;;5.03;;
15958;SDS011;8078;47.822;9.402;2022-07-21T14:40:18;6.65;;;4.90;;
15958;SDS011;8078;47.822;9.402;2022-07-21T14:42:44;5.32;;;4.82;;
15958;SDS011;8078;47.822;9.402;2022-07-21T14:45:12;6.70;;;4.90;;
15958;SDS011;8078;47.822;9.402;2022-07-21T14:47:38;5.75;;;5.20;;
15958;SDS011;8078;47.822;9.402;2022-07-21T14:50:04;6.03;;;4.70;;
15958;SDS011;8078;47.822;9.402;2022-07-21T14:52:30;6.82;;;5.40;;
15958;SDS011;8078;47.822;9.402;2022-07-21T14:54:55;6.82;;;5.25;;
15958;SDS011;8078;47.822;9.402;2022-07-21T14:57:21;6.60;;;4.80;;
15958;SDS011;8078;47.822;9.402;2022-07-21T14:59:46;6.93;;;5.32;;
15958;SDS011;8078;47.822;9.402;2022-07-21T15:02:12;6.70;;;5.00;;
15958;SDS011;8078;47.822;9.402;2022-07-21T15:04:37;6.18;;;4.88;;
15958;SDS011;8078;47.822;9.402;2022-07-21T15:07:03;8.43;;;5.25;;
15958;SDS011;8078;47.822;9.402;2022-07-21T15:09:29;8.00;;;5.10;;
15958;SDS011;8078;47.822;9.402;2022-07-21T15:11:54;5.47;;;4.97;;
15958;SDS011;8078;47.822;9.402;2022-07-21T15:14:20;5.13;;;4.53;;
15958;SDS011;8078;47.822;9.402;2022-07-21T15:16:45;7.40;;;4.82;;
15958;SDS011;8078;47.822;9.402;2022-07-21T15:19:11;6.25;;;5.20;;
15958;SDS011;8078;47.822;9.402;2022-07-21T15:21:37;8.27;;;5.15;;